createdAt,value
2022-08-05T00:00:46.729Z,23.00
2022-08-05T00:03:16.884Z,23.00
2022-08-05T00:06:06.562Z,22.90
2022-08-05T00:08:35.132Z,22.70
2022-08-05T00:11:03.350Z,22.80
2022-08-05T00:13:39.538Z,22.70
2022-08-05T00:16:11.081Z,22.60
2022-08-05T00:18:42.192Z,22.50
2022-08-05T00:21:09.046Z,22.30
2022-08-05T00:23:45.658Z,22.50
2022-08-05T00:26:13.328Z,22.30
2022-08-05T00:28:43.296Z,22.50
2022-08-05T00:31:12.726Z,22.30
2022-08-05T00:34:53.412Z,22.30
2022-08-05T00:37:11.419Z,22.30
2022-08-05T00:39:13.747Z,22.40
2022-08-05T00:41:51.528Z,22.10
2022-08-05T00:44:21.639Z,22.10
2022-08-05T00:46:54.298Z,22.10
2022-08-05T00:49:32.549Z,22.10
2022-08-05T00:52:00.095Z,22.20
2022-08-05T00:54:28.107Z,22.20
2022-08-05T00:56:57.052Z,22.30
2022-08-05T00:59:23.902Z,22.30
2022-08-05T01:01:51.178Z,22.10
2022-08-05T01:04:20.077Z,21.90
2022-08-05T01:06:53.330Z,21.70
2022-08-05T01:09:21.941Z,21.90
2022-08-05T01:11:49.939Z,21.90
2022-08-05T01:14:28.497Z,22.00
2022-08-05T01:17:09.191Z,22.00
2022-08-05T01:19:56.100Z,21.80
2022-08-05T01:22:43.255Z,21.80
2022-08-05T01:25:13.817Z,21.90
2022-08-05T01:27:55.136Z,21.80
2022-08-05T01:30:34.917Z,21.70
2022-08-05T01:33:02.976Z,21.60
2022-08-05T01:35:51.966Z,21.60
2022-08-05T01:38:27.496Z,21.60
2022-08-05T01:40:58.929Z,21.70
2022-08-05T01:43:26.010Z,21.50
2022-08-05T01:45:56.157Z,21.40
2022-08-05T01:48:24.253Z,21.50
2022-08-05T01:50:51.448Z,21.40
2022-08-05T01:53:54.649Z,21.30
2022-08-05T01:56:06.115Z,21.20
2022-08-05T01:58:44.591Z,21.10
2022-08-05T02:01:12.701Z,21.20
2022-08-05T02:03:40.772Z,21.20
2022-08-05T02:06:37.105Z,21.10
2022-08-05T02:08:58.193Z,21.30
2022-08-05T02:11:33.598Z,21.20
2022-08-05T02:14:05.807Z,21.20
2022-08-05T02:16:37.110Z,21.30
2022-08-05T02:19:08.298Z,21.10
2022-08-05T02:21:40.316Z,20.90
2022-08-05T02:24:11.151Z,20.90
2022-08-05T02:26:39.345Z,20.70
2022-08-05T02:29:26.112Z,20.90
2022-08-05T02:32:08.630Z,21.00
2022-08-05T02:34:35.625Z,20.70
2022-08-05T02:37:04.495Z,20.60
2022-08-05T02:39:34.684Z,20.50
2022-08-05T02:42:02.081Z,20.50
2022-08-05T02:44:29.020Z,20.50
2022-08-05T02:47:00.489Z,20.50
2022-08-05T02:49:36.013Z,20.50
2022-08-05T02:52:04.811Z,20.70
2022-08-05T02:54:36.552Z,20.70
2022-08-05T02:57:10.130Z,20.70
2022-08-05T02:59:54.333Z,20.80
2022-08-05T03:02:23.570Z,20.90
2022-08-05T03:04:54.477Z,20.90
2022-08-05T03:07:48.464Z,21.20
2022-08-05T03:10:08.654Z,21.30
2022-08-05T03:12:39.093Z,21.40
2022-08-05T03:15:06.987Z,21.30
2022-08-05T03:17:41.687Z,21.40
2022-08-05T03:20:09.229Z,21.20
2022-08-05T03:22:37.053Z,21.00
2022-08-05T03:25:31.586Z,21.20
2022-08-05T03:28:00.153Z,21.00
2022-08-05T03:30:28.681Z,20.80
2022-08-05T03:33:05.633Z,20.90
2022-08-05T03:35:41.173Z,20.60
2022-08-05T03:38:12.416Z,20.80
2022-08-05T03:40:45.391Z,20.80
2022-08-05T03:43:59.310Z,20.80
2022-08-05T03:46:01.549Z,20.70
2022-08-05T03:48:29.196Z,20.50
2022-08-05T03:52:39.019Z,20.60
2022-08-05T03:55:52.656Z,20.60
2022-08-05T03:56:38.691Z,20.30
2022-08-05T03:59:09.400Z,20.10
2022-08-05T04:01:37.009Z,20.10
2022-08-05T04:04:09.943Z,20.00
2022-08-05T04:06:37.693Z,20.10
2022-08-05T04:09:05.989Z,20.10
2022-08-05T04:11:50.745Z,20.10
2022-08-05T04:14:19.533Z,20.10
2022-08-05T04:16:57.581Z,20.30
2022-08-05T04:19:24.850Z,20.60
2022-08-05T04:22:09.046Z,20.80
2022-08-05T04:24:44.083Z,20.80
2022-08-05T04:27:12.184Z,20.70
2022-08-05T04:29:39.448Z,20.90
2022-08-05T04:32:06.684Z,20.90
2022-08-05T04:34:36.608Z,20.80
2022-08-05T04:37:09.536Z,20.80
2022-08-05T04:39:36.291Z,20.60
2022-08-05T04:42:03.759Z,20.60
2022-08-05T04:44:30.835Z,20.70
2022-08-05T04:47:09.688Z,20.80
2022-08-05T04:50:01.402Z,21.00
2022-08-05T04:52:27.704Z,21.00
2022-08-05T04:54:57.216Z,20.70
2022-08-05T04:57:28.606Z,20.90
2022-08-05T04:59:56.597Z,20.90
2022-08-05T05:02:37.739Z,20.80
2022-08-05T05:05:26.221Z,20.80
2022-08-05T05:07:56.624Z,20.80
2022-08-05T05:10:28.808Z,21.20
2022-08-05T05:12:56.453Z,21.50
2022-08-05T05:15:57.268Z,21.70
2022-08-05T05:18:15.409Z,21.90
2022-08-05T05:20:55.498Z,21.70
2022-08-05T05:23:22.251Z,21.70
2022-08-05T05:25:49.029Z,21.90
2022-08-05T05:28:15.743Z,21.90
2022-08-05T05:30:42.559Z,21.70
2022-08-05T05:33:16.505Z,21.90
2022-08-05T05:35:47.925Z,22.10
2022-08-05T05:38:15.166Z,22.10
2022-08-05T05:40:53.731Z,22.20
2022-08-05T05:43:56.449Z,22.50
2022-08-05T05:46:17.416Z,22.60
2022-08-05T05:48:46.077Z,23.00
2022-08-05T05:51:20.181Z,23.20
2022-08-05T05:53:57.843Z,23.40
2022-08-05T05:56:31.632Z,23.70
2022-08-05T05:59:03.252Z,24.00
2022-08-05T06:01:37.447Z,24.00
2022-08-05T06:04:05.474Z,24.20
2022-08-05T06:06:34.812Z,24.20
2022-08-05T06:09:03.997Z,24.30
2022-08-05T06:11:31.395Z,24.60
2022-08-05T06:13:58.197Z,24.40
2022-08-05T06:16:36.733Z,24.40
2022-08-05T06:19:05.788Z,24.60
2022-08-05T06:21:35.917Z,24.60
2022-08-05T06:24:04.597Z,24.90
2022-08-05T06:26:33.937Z,24.90
2022-08-05T06:29:03.704Z,25.10
2022-08-05T06:31:33.791Z,25.30
2022-08-05T06:34:07.373Z,25.40
2022-08-05T06:36:53.589Z,25.30
2022-08-05T06:39:22.158Z,25.40
2022-08-05T06:41:53.732Z,25.50
2022-08-05T06:44:22.143Z,25.70
2022-08-05T06:46:50.852Z,25.80
2022-08-05T06:49:18.970Z,26.00
2022-08-05T06:51:48.373Z,26.10
2022-08-05T06:54:18.184Z,26.20
2022-08-05T06:56:55.092Z,26.50
2022-08-05T06:59:38.798Z,26.60
2022-08-05T07:02:08.998Z,27.00
2022-08-05T07:04:35.856Z,27.00
2022-08-05T07:07:03.486Z,27.20
2022-08-05T07:09:40.563Z,27.30
2022-08-05T07:12:30.003Z,27.40
2022-08-05T07:15:34.225Z,27.50
2022-08-05T07:18:09.132Z,28.00
2022-08-05T07:20:38.952Z,28.30
2022-08-05T07:23:06.555Z,28.40
2022-08-05T07:25:56.338Z,28.20
2022-08-05T07:28:20.212Z,28.40
2022-08-05T07:30:50.318Z,28.50
2022-08-05T07:33:36.949Z,28.90
2022-08-05T07:36:20.796Z,29.30
2022-08-05T07:38:48.981Z,29.20
2022-08-05T07:42:08.761Z,29.30
2022-08-05T07:44:04.895Z,28.90
2022-08-05T07:46:31.758Z,29.20
2022-08-05T07:49:05.540Z,29.40
2022-08-05T07:51:48.893Z,29.30
2022-08-05T07:54:23.141Z,29.50
2022-08-05T07:57:14.690Z,29.30
2022-08-05T07:59:41.119Z,29.80
2022-08-05T08:02:10.648Z,30.20
2022-08-05T08:04:47.647Z,30.30
2022-08-05T08:07:15.464Z,30.50
2022-08-05T08:09:42.585Z,30.70
2022-08-05T08:12:19.953Z,30.90
2022-08-05T08:14:56.250Z,30.80
2022-08-05T08:17:23.581Z,30.60
2022-08-05T08:20:22.989Z,30.40
2022-08-05T08:22:37.298Z,30.30
2022-08-05T08:25:16.358Z,31.00
2022-08-05T08:27:47.601Z,31.20
2022-08-05T08:30:28.493Z,31.30
2022-08-05T08:33:04.392Z,31.50
2022-08-05T08:35:41.021Z,31.60
2022-08-05T08:38:16.251Z,31.60
2022-08-05T08:40:47.781Z,31.50
2022-08-05T08:44:57.894Z,31.50
2022-08-05T08:46:05.874Z,32.00
2022-08-05T08:49:03.315Z,32.40
2022-08-05T08:52:02.873Z,32.90
2022-08-05T08:54:13.770Z,33.00
2022-08-05T08:56:47.932Z,32.90
2022-08-05T08:59:19.576Z,32.80
2022-08-05T09:01:57.295Z,32.70
2022-08-05T09:04:30.688Z,32.80
2022-08-05T09:06:57.843Z,33.00
2022-08-05T09:09:26.061Z,33.20
2022-08-05T09:12:13.570Z,33.60
2022-08-05T09:14:57.983Z,33.70
2022-08-05T09:17:41.200Z,33.60
2022-08-05T09:20:09.751Z,33.60
2022-08-05T09:22:54.922Z,33.50
2022-08-05T09:26:01.913Z,34.00
2022-08-05T09:28:21.044Z,34.10
2022-08-05T09:30:57.764Z,34.60
2022-08-05T09:33:24.678Z,33.80
2022-08-05T09:36:06.159Z,33.80
2022-08-05T09:38:55.626Z,34.00
2022-08-05T09:41:23.943Z,34.50
2022-08-05T09:43:52.639Z,34.80
2022-08-05T09:46:27.923Z,34.90
2022-08-05T09:49:07.773Z,35.00
2022-08-05T09:51:42.608Z,34.80
2022-08-05T09:54:11.510Z,34.90
2022-08-05T09:56:38.598Z,35.30
2022-08-05T09:59:06.423Z,35.70
2022-08-05T10:01:33.799Z,36.20
2022-08-05T10:04:03.557Z,36.70
2022-08-05T10:06:31.123Z,36.80
2022-08-05T10:09:27.852Z,36.70
2022-08-05T10:11:55.416Z,36.70
2022-08-05T10:14:30.233Z,37.20
2022-08-05T10:17:37.188Z,37.50
2022-08-05T10:20:03.040Z,37.00
2022-08-05T10:22:35.137Z,37.10
2022-08-05T10:25:05.034Z,37.60
2022-08-05T10:28:12.727Z,37.70
2022-08-05T10:31:20.880Z,37.50
2022-08-05T10:33:09.555Z,36.80
2022-08-05T10:35:43.865Z,36.60
2022-08-05T10:38:11.787Z,36.30
2022-08-05T10:40:45.064Z,37.30
2022-08-05T10:43:13.767Z,38.10
2022-08-05T10:45:42.003Z,37.40
2022-08-05T10:48:30.692Z,37.50
2022-08-05T10:51:00.269Z,38.00
2022-08-05T10:53:42.670Z,37.60
2022-08-05T10:56:21.575Z,37.30
2022-08-05T10:58:55.710Z,38.70
2022-08-05T11:01:54.059Z,39.80
2022-08-05T11:04:22.663Z,39.20
2022-08-05T11:07:04.508Z,39.70
2022-08-05T11:09:46.648Z,40.60
2022-08-05T11:12:32.257Z,40.70
2022-08-05T11:15:20.370Z,41.30
2022-08-05T11:17:59.161Z,40.80
2022-08-05T11:20:44.051Z,41.10
2022-08-05T11:24:02.221Z,40.20
2022-08-05T11:26:28.796Z,40.20
2022-08-05T11:29:06.632Z,39.10
2022-08-05T11:31:58.205Z,39.70
2022-08-05T11:34:47.598Z,39.80
2022-08-05T11:38:37.294Z,42.30
2022-08-05T11:40:43.226Z,42.50
2022-08-05T11:43:19.991Z,42.50
2022-08-05T11:46:27.275Z,41.90
2022-08-05T11:48:53.892Z,41.90
2022-08-05T11:51:44.845Z,41.90
2022-08-05T11:53:48.879Z,41.60
2022-08-05T11:56:15.611Z,42.10
2022-08-05T11:58:47.874Z,42.20
2022-08-05T12:03:57.056Z,45.20
2022-08-05T12:06:24.604Z,42.90
2022-08-05T12:08:53.484Z,44.80
2022-08-05T12:11:20.708Z,45.30
2022-08-05T12:13:58.496Z,45.70
2022-08-05T12:16:27.296Z,45.20
2022-08-05T12:18:55.604Z,45.60
2022-08-05T12:21:26.786Z,45.10
2022-08-05T12:24:00.175Z,43.30
2022-08-05T12:26:34.253Z,44.20
2022-08-05T12:29:01.499Z,44.00
2022-08-05T12:31:33.718Z,44.70
2022-08-05T12:34:20.320Z,45.30
2022-08-05T12:36:47.971Z,45.00
2022-08-05T12:39:14.816Z,46.10
2022-08-05T12:41:43.643Z,44.20
2022-08-05T12:44:11.599Z,42.90
2022-08-05T12:46:45.492Z,44.40
2022-08-05T12:49:14.528Z,46.40
2022-08-05T12:52:12.541Z,47.70
2022-08-05T12:54:38.411Z,46.80
2022-08-05T12:57:09.607Z,48.20
2022-08-05T13:01:56.639Z,49.50
2022-08-05T13:02:35.273Z,48.70
2022-08-05T13:05:05.511Z,47.50
2022-08-05T13:07:57.205Z,47.10
2022-08-05T13:10:20.481Z,48.20
2022-08-05T13:12:57.773Z,49.50
2022-08-05T13:15:36.030Z,49.50
2022-08-05T13:18:20.624Z,49.00
2022-08-05T13:20:48.968Z,48.00
2022-08-05T13:23:16.315Z,48.40
2022-08-05T13:25:52.503Z,49.30
2022-08-05T13:28:25.944Z,49.60
2022-08-05T13:30:53.127Z,49.10
2022-08-05T13:34:23.989Z,49.40
2022-08-05T13:36:09.463Z,49.60
2022-08-05T13:38:42.172Z,50.80
2022-08-05T13:41:10.776Z,49.70
2022-08-05T13:43:44.886Z,50.20
2022-08-05T13:46:51.027Z,49.80
2022-08-05T13:49:10.190Z,49.70
2022-08-05T13:51:41.123Z,49.80
2022-08-05T13:54:12.951Z,49.60
2022-08-05T13:56:44.947Z,50.00
2022-08-05T13:59:24.285Z,49.40
2022-08-05T14:01:58.360Z,49.20
2022-08-05T14:04:54.370Z,48.80
2022-08-05T14:07:56.240Z,49.30
2022-08-05T14:10:18.708Z,49.80
2022-08-05T14:12:48.752Z,50.30
2022-08-05T14:16:04.602Z,50.80
2022-08-05T14:18:02.668Z,50.20
2022-08-05T14:20:30.863Z,50.00
2022-08-05T14:23:00.761Z,47.70
2022-08-05T14:25:30.148Z,48.10
2022-08-05T14:27:58.538Z,47.30
2022-08-05T14:30:26.595Z,46.20
2022-08-05T14:32:54.476Z,46.10
2022-08-05T14:35:23.525Z,45.70
2022-08-05T14:38:04.488Z,45.50
2022-08-05T14:40:31.254Z,44.60
2022-08-05T14:42:58.000Z,45.60
2022-08-05T14:45:25.034Z,45.70
2022-08-05T14:48:02.840Z,44.60
2022-08-05T14:50:31.081Z,44.10
2022-08-05T14:52:59.716Z,43.40
2022-08-05T14:55:38.730Z,42.50
2022-08-05T14:58:10.924Z,41.50
2022-08-05T15:00:38.232Z,40.70
2022-08-05T15:03:09.630Z,40.10
2022-08-05T15:06:07.386Z,38.70
2022-08-05T15:08:58.444Z,38.40
2022-08-05T15:11:09.980Z,38.60
2022-08-05T15:13:46.621Z,38.70
2022-08-05T15:16:17.195Z,38.70
2022-08-05T15:18:43.968Z,38.40
2022-08-05T15:21:14.030Z,38.40
2022-08-05T15:23:40.795Z,38.10
2022-08-05T15:26:07.499Z,37.90
2022-08-05T15:28:34.311Z,37.90
2022-08-05T15:31:03.608Z,37.80
2022-08-05T15:34:04.258Z,37.80
2022-08-05T15:36:24.460Z,38.10
2022-08-05T15:41:00.568Z,38.10
2022-08-05T15:41:57.506Z,38.30
2022-08-05T15:44:26.548Z,38.00
2022-08-05T15:46:55.822Z,37.80
2022-08-05T15:49:40.950Z,37.70
2022-08-05T15:52:16.771Z,37.50
2022-08-05T15:54:56.088Z,37.50
2022-08-05T15:57:23.630Z,37.70
2022-08-05T15:59:54.030Z,37.50
2022-08-05T16:02:25.620Z,37.50
2022-08-05T16:04:52.921Z,37.50
2022-08-05T16:07:21.425Z,37.50
2022-08-05T16:09:49.965Z,37.40
2022-08-05T16:12:16.890Z,37.40
2022-08-05T16:14:46.678Z,37.30
2022-08-05T16:17:13.426Z,37.50
2022-08-05T16:20:05.323Z,37.30
2022-08-05T16:22:27.740Z,37.20
2022-08-05T16:25:00.902Z,37.50
2022-08-05T16:27:47.404Z,37.70
2022-08-05T16:30:25.712Z,37.90
2022-08-05T16:32:53.391Z,38.40
2022-08-05T16:35:20.155Z,38.40
2022-08-05T16:38:15.643Z,39.00
2022-08-05T16:40:42.152Z,39.30
2022-08-05T16:43:16.526Z,39.20
2022-08-05T16:46:06.068Z,38.90
2022-08-05T16:48:33.474Z,38.60
2022-08-05T16:51:00.848Z,38.30
2022-08-05T16:53:32.365Z,38.40
2022-08-05T16:56:14.308Z,38.50
2022-08-05T16:58:41.076Z,38.30
2022-08-05T17:01:10.437Z,38.00
2022-08-05T17:03:37.566Z,37.80
2022-08-05T17:06:05.903Z,37.70
2022-08-05T17:08:51.924Z,37.40
2022-08-05T17:11:20.512Z,37.50
2022-08-05T17:13:50.743Z,37.50
2022-08-05T17:16:32.883Z,37.40
2022-08-05T17:19:00.697Z,38.00
2022-08-05T17:21:35.441Z,38.80
2022-08-05T17:24:07.300Z,39.70
2022-08-05T17:26:47.483Z,39.80
2022-08-05T17:29:14.632Z,39.80
2022-08-05T17:31:58.594Z,39.80
2022-08-05T17:34:29.697Z,39.40
2022-08-05T17:36:59.037Z,38.30
2022-08-05T17:39:33.273Z,37.10
2022-08-05T17:42:17.295Z,36.40
2022-08-05T17:44:50.403Z,36.00
2022-08-05T17:47:22.226Z,35.70
2022-08-05T17:50:03.586Z,35.20
2022-08-05T17:52:34.008Z,35.00
2022-08-05T17:55:00.950Z,34.80
2022-08-05T17:57:29.899Z,34.70
2022-08-05T18:00:04.773Z,34.60
2022-08-05T18:02:35.708Z,34.60
2022-08-05T18:05:06.292Z,34.40
2022-08-05T18:07:41.147Z,34.30
2022-08-05T18:10:10.508Z,34.00
2022-08-05T18:12:37.640Z,34.00
2022-08-05T18:15:04.743Z,33.80
2022-08-05T18:17:59.194Z,33.60
2022-08-05T18:20:29.003Z,33.50
2022-08-05T18:22:57.968Z,33.50
2022-08-05T18:25:32.707Z,33.40
2022-08-05T18:28:04.683Z,33.40
2022-08-05T18:30:33.252Z,33.30
2022-08-05T18:33:00.994Z,33.10
2022-08-05T18:36:00.043Z,32.90
2022-08-05T18:38:18.942Z,32.70
2022-08-05T18:41:54.956Z,32.50
2022-08-05T18:43:38.306Z,32.60
2022-08-05T18:46:10.215Z,32.60
2022-08-05T18:48:41.676Z,32.30
2022-08-05T18:52:02.758Z,31.90
2022-08-05T18:54:14.305Z,31.90
2022-08-05T18:56:41.031Z,31.70
2022-08-05T18:59:41.871Z,31.70
2022-08-05T19:01:58.112Z,31.40
2022-08-05T19:04:25.798Z,31.00
2022-08-05T19:06:53.563Z,30.80
2022-08-05T19:09:21.099Z,30.60
2022-08-05T19:12:00.440Z,30.40
2022-08-05T19:14:59.172Z,30.10
2022-08-05T19:17:15.298Z,30.00
2022-08-05T19:19:46.962Z,29.80
2022-08-05T19:22:17.327Z,29.80
2022-08-05T19:24:54.518Z,29.70
2022-08-05T19:27:24.354Z,29.50
2022-08-05T19:29:57.267Z,29.30
2022-08-05T19:32:26.180Z,29.20
2022-08-05T19:34:55.817Z,29.10
2022-08-05T19:37:29.727Z,29.20
2022-08-05T19:40:02.002Z,29.00
2022-08-05T19:42:36.073Z,28.80
2022-08-05T19:45:03.170Z,28.80
2022-08-05T19:47:33.206Z,28.80
2022-08-05T19:50:01.099Z,28.60
2022-08-05T19:52:40.543Z,28.90
2022-08-05T19:56:11.701Z,29.00
2022-08-05T19:58:10.409Z,28.90
2022-08-05T20:00:41.721Z,28.80
2022-08-05T20:03:09.320Z,28.60
2022-08-05T20:05:42.933Z,28.60
2022-08-05T20:08:10.210Z,28.60
2022-08-05T20:10:36.962Z,28.60
2022-08-05T20:13:03.745Z,28.60
2022-08-05T20:15:52.018Z,28.20
2022-08-05T20:18:32.591Z,28.00
2022-08-05T20:21:00.994Z,27.70
2022-08-05T20:23:39.378Z,27.50
2022-08-05T20:26:15.987Z,27.60
2022-08-05T20:28:44.535Z,27.70
2022-08-05T20:31:11.514Z,27.70
2022-08-05T20:33:38.274Z,27.60
2022-08-05T20:36:10.106Z,27.40
2022-08-05T20:38:38.121Z,27.40
2022-08-05T20:41:23.989Z,27.40
2022-08-05T20:43:59.010Z,27.20
2022-08-05T20:46:29.588Z,27.10
2022-08-05T20:48:56.346Z,27.00
2022-08-05T20:51:23.333Z,27.10
2022-08-05T20:53:56.215Z,27.10
2022-08-05T20:56:28.981Z,26.90
2022-08-05T20:59:04.232Z,27.10
2022-08-05T21:01:41.316Z,27.10
2022-08-05T21:04:10.664Z,27.00
2022-08-05T21:06:38.411Z,27.00
2022-08-05T21:09:14.559Z,26.80
2022-08-05T21:12:09.533Z,26.80
2022-08-05T21:14:34.664Z,26.60
2022-08-05T21:17:05.746Z,26.60
2022-08-05T21:19:47.085Z,26.40
2022-08-05T21:22:17.694Z,26.60
2022-08-05T21:24:45.388Z,26.60
2022-08-05T21:27:16.084Z,26.60
2022-08-05T21:29:43.426Z,26.50
2022-08-05T21:32:26.744Z,26.20
2022-08-05T21:35:08.871Z,26.00
2022-08-05T21:37:48.079Z,25.90
2022-08-05T21:40:20.199Z,26.00
2022-08-05T21:42:47.219Z,25.80
2022-08-05T21:45:24.258Z,25.90
2022-08-05T21:47:56.699Z,25.90
2022-08-05T21:50:25.521Z,25.80
2022-08-05T21:52:52.568Z,25.60
2022-08-05T21:56:01.701Z,25.60
2022-08-05T21:58:10.499Z,25.60
2022-08-05T22:00:38.667Z,25.50
2022-08-05T22:03:07.165Z,25.40
2022-08-05T22:05:48.965Z,25.30
2022-08-05T22:08:22.247Z,25.30
2022-08-05T22:10:51.059Z,25.10
2022-08-05T22:14:19.561Z,25.00
2022-08-05T22:16:20.394Z,25.10
2022-08-05T22:18:52.464Z,25.00
2022-08-05T22:21:19.841Z,25.00
2022-08-05T22:24:08.793Z,24.80
2022-08-05T22:26:58.113Z,24.90
2022-08-05T22:29:26.659Z,25.00
2022-08-05T22:31:59.323Z,24.80
2022-08-05T22:34:28.753Z,24.80
2022-08-05T22:36:58.461Z,25.00
2022-08-05T22:39:30.985Z,25.20
2022-08-05T22:42:11.676Z,25.30
2022-08-05T22:44:40.541Z,25.30
2022-08-05T22:47:09.441Z,25.10
2022-08-05T22:50:17.828Z,24.90
2022-08-05T22:52:30.211Z,24.90
2022-08-05T22:54:59.576Z,24.70
2022-08-05T22:57:26.782Z,24.70
2022-08-05T23:00:00.780Z,24.70
2022-08-05T23:02:30.271Z,24.60
2022-08-05T23:05:01.879Z,24.50
2022-08-05T23:07:31.886Z,24.40
2022-08-05T23:10:02.080Z,24.40
2022-08-05T23:12:33.331Z,24.50
2022-08-05T23:15:03.081Z,24.40
2022-08-05T23:17:34.143Z,24.40
2022-08-05T23:20:05.774Z,24.20
2022-08-05T23:22:37.307Z,24.10
2022-08-05T23:25:04.236Z,24.00
2022-08-05T23:27:42.442Z,23.90
2022-08-05T23:30:21.030Z,23.80
2022-08-05T23:32:54.011Z,23.70
2022-08-05T23:35:20.775Z,23.80
2022-08-05T23:37:48.272Z,23.80
2022-08-05T23:40:15.142Z,23.60
2022-08-05T23:42:42.124Z,23.60
2022-08-05T23:45:15.563Z,23.40
2022-08-05T23:47:47.687Z,23.60
2022-08-05T23:50:15.153Z,23.40
2022-08-05T23:52:50.358Z,23.50
2022-08-05T23:55:17.967Z,23.40
2022-08-05T23:57:44.709Z,23.40
